createdAt,value
2017-08-20T00:00:22.992Z,11.53
2017-08-20T00:01:22.977Z,11.57
2017-08-20T00:02:23.027Z,11.57
2017-08-20T00:03:22.986Z,11.56
2017-08-20T00:04:23.035Z,11.56
2017-08-20T00:05:23.015Z,11.53
2017-08-20T00:06:23.062Z,11.54
2017-08-20T00:07:23.052Z,11.51
2017-08-20T00:08:22.989Z,11.54
2017-08-20T00:09:23.056Z,11.57
2017-08-20T00:10:23.058Z,11.57
2017-08-20T00:11:23.027Z,11.60
2017-08-20T00:12:22.970Z,11.60
2017-08-20T00:13:23.059Z,11.62
2017-08-20T00:14:22.999Z,11.62
2017-08-20T00:15:22.969Z,11.68
2017-08-20T00:16:22.989Z,11.68
2017-08-20T00:17:22.971Z,11.69
2017-08-20T00:18:22.971Z,11.71
2017-08-20T00:19:22.996Z,11.68
2017-08-20T00:20:22.946Z,11.69
2017-08-20T00:21:22.967Z,11.68
2017-08-20T00:22:22.942Z,11.62
2017-08-20T00:23:23.003Z,11.57
2017-08-20T00:24:22.988Z,11.49
2017-08-20T00:25:22.944Z,11.40
2017-08-20T00:26:23.083Z,11.35
2017-08-20T00:27:22.978Z,11.33
2017-08-20T00:28:23.001Z,11.31
2017-08-20T00:29:23.040Z,11.29
2017-08-20T00:30:23.016Z,11.28
2017-08-20T00:31:23.027Z,11.32
2017-08-20T00:32:23.000Z,11.38
2017-08-20T00:33:23.003Z,11.36
2017-08-20T00:34:23.018Z,11.35
2017-08-20T00:35:23.002Z,11.31
2017-08-20T00:36:22.980Z,11.28
2017-08-20T00:37:22.980Z,11.28
2017-08-20T00:38:23.018Z,11.25
2017-08-20T00:39:23.041Z,11.20
2017-08-20T00:40:23.034Z,11.14
2017-08-20T00:41:23.005Z,11.10
2017-08-20T00:42:23.038Z,11.07
2017-08-20T00:43:23.013Z,11.03
2017-08-20T00:44:23.076Z,11.02
2017-08-20T00:45:23.021Z,11.05
2017-08-20T00:46:23.079Z,11.02
2017-08-20T00:47:23.065Z,10.98
2017-08-20T00:48:23.042Z,10.95
2017-08-20T00:49:23.063Z,10.91
2017-08-20T00:50:23.012Z,10.84
2017-08-20T00:51:23.063Z,10.81
2017-08-20T00:52:23.081Z,10.75
2017-08-20T00:53:23.011Z,10.74
2017-08-20T00:54:23.028Z,10.65
2017-08-20T00:55:23.061Z,10.64
2017-08-20T00:56:23.083Z,10.65
2017-08-20T00:57:22.993Z,10.65
2017-08-20T00:58:23.087Z,10.61
2017-08-20T00:59:23.085Z,10.61
2017-08-20T01:00:23.061Z,10.67
2017-08-20T01:01:22.998Z,10.72
2017-08-20T01:02:23.090Z,10.69
2017-08-20T01:03:23.056Z,10.64
2017-08-20T01:04:22.996Z,10.60
2017-08-20T01:05:23.091Z,10.57
2017-08-20T01:06:22.994Z,10.50
2017-08-20T01:07:23.037Z,10.45
2017-08-20T01:08:23.003Z,10.42
2017-08-20T01:09:22.995Z,10.39
2017-08-20T01:10:23.004Z,10.41
2017-08-20T01:11:23.073Z,10.50
2017-08-20T01:12:23.000Z,10.58
2017-08-20T01:13:23.018Z,10.64
2017-08-20T01:14:23.026Z,10.65
2017-08-20T01:15:23.044Z,10.67
2017-08-20T01:16:23.027Z,10.68
2017-08-20T01:17:23.036Z,10.67
2017-08-20T01:18:23.029Z,10.69
2017-08-20T01:19:23.005Z,10.68
2017-08-20T01:20:23.110Z,10.68
2017-08-20T01:21:23.007Z,10.68
2017-08-20T01:22:23.083Z,10.65
2017-08-20T01:23:23.046Z,10.60
2017-08-20T01:24:23.101Z,10.54
2017-08-20T01:25:23.063Z,10.49
2017-08-20T01:26:23.065Z,10.43
2017-08-20T01:27:23.034Z,10.41
2017-08-20T01:28:23.040Z,10.49
2017-08-20T01:29:23.068Z,10.52
2017-08-20T01:30:23.040Z,10.47
2017-08-20T01:31:23.072Z,10.49
2017-08-20T01:32:23.075Z,10.52
2017-08-20T01:33:23.067Z,10.54
2017-08-20T01:34:23.068Z,10.56
2017-08-20T01:35:23.037Z,10.57
2017-08-20T01:36:23.016Z,10.61
2017-08-20T01:37:23.015Z,10.58
2017-08-20T01:38:23.077Z,10.54
2017-08-20T01:39:23.077Z,10.49
2017-08-20T01:40:23.010Z,10.47
2017-08-20T01:41:23.009Z,10.45
2017-08-20T01:42:23.074Z,10.50
2017-08-20T01:43:23.007Z,10.50
2017-08-20T01:44:23.040Z,10.45
2017-08-20T01:45:23.037Z,10.39
2017-08-20T01:46:23.042Z,10.38
2017-08-20T01:47:23.038Z,10.34
2017-08-20T01:48:23.023Z,10.32
2017-08-20T01:49:23.109Z,10.31
2017-08-20T01:50:23.120Z,10.28
2017-08-20T01:51:23.078Z,10.27
2017-08-20T01:52:23.030Z,10.35
2017-08-20T01:53:23.057Z,10.32
2017-08-20T01:54:23.084Z,10.36
2017-08-20T01:55:23.113Z,10.41
2017-08-20T01:56:23.031Z,10.46
2017-08-20T01:57:23.057Z,10.58
2017-08-20T01:58:23.027Z,10.68
2017-08-20T01:59:23.163Z,10.72
2017-08-20T02:00:23.056Z,10.77
2017-08-20T02:01:23.081Z,10.79
2017-08-20T02:02:23.065Z,10.84
2017-08-20T02:03:23.064Z,10.84
2017-08-20T02:04:23.160Z,10.91
2017-08-20T02:05:23.036Z,10.90
2017-08-20T02:06:23.068Z,10.88
2017-08-20T02:07:23.101Z,10.88
2017-08-20T02:08:23.123Z,10.91
2017-08-20T02:09:23.067Z,10.94
2017-08-20T02:10:23.128Z,10.94
2017-08-20T02:11:23.040Z,10.95
2017-08-20T02:12:23.068Z,10.95
2017-08-20T02:13:23.062Z,10.95
2017-08-20T02:14:23.074Z,10.94
2017-08-20T02:15:23.071Z,10.93
2017-08-20T02:16:23.106Z,10.93
2017-08-20T02:17:23.066Z,10.91
2017-08-20T02:18:23.036Z,10.95
2017-08-20T02:19:23.040Z,10.98
2017-08-20T02:20:23.064Z,11.00
2017-08-20T02:21:23.059Z,10.98
2017-08-20T02:22:23.038Z,10.98
2017-08-20T02:23:23.035Z,11.02
2017-08-20T02:24:23.066Z,11.03
2017-08-20T02:25:23.038Z,11.02
2017-08-20T02:26:23.220Z,10.98
2017-08-20T02:27:23.098Z,10.93
2017-08-20T02:28:23.066Z,10.90
2017-08-20T02:29:23.068Z,10.86
2017-08-20T02:30:23.067Z,10.83
2017-08-20T02:31:23.079Z,10.83
2017-08-20T02:32:23.104Z,10.83
2017-08-20T02:33:23.042Z,10.83
2017-08-20T02:34:23.071Z,10.83
2017-08-20T02:35:23.102Z,10.86
2017-08-20T02:36:23.071Z,10.87
2017-08-20T02:37:23.103Z,10.90
2017-08-20T02:38:23.086Z,10.90
2017-08-20T02:39:23.145Z,10.90
2017-08-20T02:40:23.088Z,10.88
2017-08-20T02:41:23.079Z,10.91
2017-08-20T02:42:23.109Z,10.95
2017-08-20T02:43:23.057Z,11.00
2017-08-20T02:44:23.116Z,11.03
2017-08-20T02:45:23.121Z,11.07
2017-08-20T02:46:23.119Z,11.07
2017-08-20T02:47:23.095Z,11.11
2017-08-20T02:48:23.058Z,11.13
2017-08-20T02:49:23.126Z,11.13
2017-08-20T02:50:23.155Z,11.14
2017-08-20T02:51:23.059Z,11.13
2017-08-20T02:52:23.127Z,11.16
2017-08-20T02:53:23.065Z,11.14
2017-08-20T02:54:23.100Z,11.17
2017-08-20T02:55:23.148Z,11.20
2017-08-20T02:56:23.150Z,11.20
2017-08-20T02:57:23.121Z,11.25
2017-08-20T02:58:23.036Z,11.25
2017-08-20T02:59:23.091Z,11.25
2017-08-20T03:00:23.129Z,11.27
2017-08-20T03:01:23.084Z,11.25
2017-08-20T03:02:23.016Z,11.22
2017-08-20T03:03:23.032Z,11.22
2017-08-20T03:04:23.088Z,11.21
2017-08-20T03:05:23.152Z,11.21
2017-08-20T03:06:23.043Z,11.21
2017-08-20T03:07:23.064Z,11.20
2017-08-20T03:08:23.091Z,11.17
2017-08-20T03:09:23.123Z,11.14
2017-08-20T03:10:23.129Z,11.14
2017-08-20T03:11:23.127Z,11.11
2017-08-20T03:12:23.347Z,11.11
2017-08-20T03:13:23.064Z,11.10
2017-08-20T03:14:23.071Z,11.07
2017-08-20T03:15:23.095Z,11.06
2017-08-20T03:16:23.068Z,11.07
2017-08-20T03:17:23.071Z,11.06
2017-08-20T03:18:23.083Z,11.05
2017-08-20T03:19:23.150Z,11.06
2017-08-20T03:20:23.150Z,11.05
2017-08-20T03:21:23.117Z,11.06
2017-08-20T03:22:23.136Z,11.06
2017-08-20T03:23:23.102Z,11.00
2017-08-20T03:24:23.101Z,10.97
2017-08-20T03:25:23.143Z,10.94
2017-08-20T03:26:23.107Z,10.91
2017-08-20T03:27:23.084Z,10.90
2017-08-20T03:28:23.148Z,10.87
2017-08-20T03:29:23.081Z,10.87
2017-08-20T03:30:23.084Z,10.86
2017-08-20T03:31:23.145Z,10.84
2017-08-20T03:32:23.153Z,10.84
2017-08-20T03:33:23.179Z,10.84
2017-08-20T03:34:23.089Z,10.83
2017-08-20T03:35:23.123Z,10.83
2017-08-20T03:36:23.087Z,10.84
2017-08-20T03:37:23.175Z,10.88
2017-08-20T03:38:23.081Z,10.88
2017-08-20T03:39:23.086Z,10.88
2017-08-20T03:40:23.110Z,10.86
2017-08-20T03:41:23.098Z,10.83
2017-08-20T03:42:23.148Z,10.77
2017-08-20T03:43:23.090Z,10.74
2017-08-20T03:44:23.069Z,10.68
2017-08-20T03:45:23.243Z,10.63
2017-08-20T03:46:23.095Z,10.57
2017-08-20T03:47:23.097Z,10.52
2017-08-20T03:48:23.116Z,10.49
2017-08-20T03:49:23.137Z,10.43
2017-08-20T03:50:23.111Z,10.39
2017-08-20T03:51:23.072Z,10.39
2017-08-20T03:52:23.104Z,10.35
2017-08-20T03:53:23.114Z,10.35
2017-08-20T03:54:23.101Z,10.36
2017-08-20T03:55:23.160Z,10.36
2017-08-20T03:56:23.072Z,10.39
2017-08-20T03:57:23.100Z,10.41
2017-08-20T03:58:23.078Z,10.41
2017-08-20T03:59:23.187Z,10.42
2017-08-20T04:00:23.158Z,10.43
2017-08-20T04:01:23.152Z,10.43
2017-08-20T04:02:23.174Z,10.41
2017-08-20T04:03:23.127Z,10.41
2017-08-20T04:04:23.160Z,10.39
2017-08-20T04:05:23.197Z,10.39
2017-08-20T04:06:23.163Z,10.39
2017-08-20T04:07:23.141Z,10.45
2017-08-20T04:08:23.135Z,10.49
2017-08-20T04:09:23.116Z,10.52
2017-08-20T04:10:23.171Z,10.56
2017-08-20T04:11:23.201Z,10.58
2017-08-20T04:12:23.106Z,10.58
2017-08-20T04:13:23.199Z,10.54
2017-08-20T04:14:23.168Z,10.54
2017-08-20T04:15:23.144Z,10.53
2017-08-20T04:16:23.167Z,10.52
2017-08-20T04:17:23.164Z,10.50
2017-08-20T04:18:23.135Z,10.54
2017-08-20T04:19:23.136Z,10.57
2017-08-20T04:20:23.168Z,10.56
2017-08-20T04:21:23.137Z,10.54
2017-08-20T04:22:23.176Z,10.49
2017-08-20T04:23:23.135Z,10.52
2017-08-20T04:24:23.168Z,10.52
2017-08-20T04:25:23.137Z,10.50
2017-08-20T04:26:23.141Z,10.50
2017-08-20T04:27:23.110Z,10.57
2017-08-20T04:28:23.173Z,10.63
2017-08-20T04:29:23.117Z,10.71
2017-08-20T04:30:23.116Z,10.74
2017-08-20T04:31:23.192Z,10.72
2017-08-20T04:32:23.123Z,10.69
2017-08-20T04:33:23.123Z,10.72
2017-08-20T04:34:23.120Z,10.74
2017-08-20T04:35:23.156Z,10.71
2017-08-20T04:36:23.218Z,10.71
2017-08-20T04:37:23.156Z,10.71
2017-08-20T04:38:23.157Z,10.72
2017-08-20T04:39:23.063Z,10.69
2017-08-20T04:40:23.172Z,10.68
2017-08-20T04:41:23.119Z,10.65
2017-08-20T04:42:23.101Z,10.63
2017-08-20T04:43:23.124Z,10.58
2017-08-20T04:44:23.110Z,10.57
2017-08-20T04:45:23.146Z,10.61
2017-08-20T04:46:23.068Z,10.65
2017-08-20T04:47:23.105Z,10.65
2017-08-20T04:48:23.064Z,10.65
2017-08-20T04:49:23.185Z,10.67
2017-08-20T04:50:23.160Z,10.67
2017-08-20T04:51:23.129Z,10.68
2017-08-20T04:52:23.203Z,10.68
2017-08-20T04:53:23.201Z,10.69
2017-08-20T04:54:23.194Z,10.68
2017-08-20T04:55:23.163Z,10.72
2017-08-20T04:56:23.193Z,10.74
2017-08-20T04:57:23.164Z,10.74
2017-08-20T04:58:23.170Z,10.79
2017-08-20T04:59:23.108Z,10.83
2017-08-20T05:00:23.108Z,10.87
2017-08-20T05:01:23.108Z,10.91
2017-08-20T05:02:23.145Z,10.94
2017-08-20T05:03:23.130Z,10.98
2017-08-20T05:04:23.128Z,11.05
2017-08-20T05:05:23.157Z,11.09
2017-08-20T05:06:23.155Z,11.11
2017-08-20T05:07:23.171Z,11.16
2017-08-20T05:08:23.145Z,11.20
2017-08-20T05:09:23.176Z,11.22
2017-08-20T05:10:23.143Z,11.27
2017-08-20T05:11:23.198Z,11.29
2017-08-20T05:12:23.203Z,11.33
2017-08-20T05:13:23.232Z,11.39
2017-08-20T05:14:23.200Z,11.46
2017-08-20T05:15:23.181Z,11.51
2017-08-20T05:16:23.200Z,11.57
2017-08-20T05:17:23.217Z,11.61
2017-08-20T05:18:23.183Z,11.65
2017-08-20T05:19:23.141Z,11.68
2017-08-20T05:20:23.164Z,11.72
2017-08-20T05:21:23.208Z,11.75
2017-08-20T05:22:23.167Z,11.78
2017-08-20T05:23:23.166Z,11.79
2017-08-20T05:24:23.173Z,11.80
2017-08-20T05:25:23.173Z,11.82
2017-08-20T05:26:23.177Z,11.86
2017-08-20T05:27:23.214Z,11.86
2017-08-20T05:28:23.171Z,11.89
2017-08-20T05:29:23.152Z,11.92
2017-08-20T05:30:23.155Z,11.95
2017-08-20T05:31:23.248Z,11.95
2017-08-20T05:32:23.241Z,11.97
2017-08-20T05:33:23.209Z,11.99
2017-08-20T05:34:23.170Z,12.02
2017-08-20T05:35:23.164Z,12.03
2017-08-20T05:36:23.222Z,12.05
2017-08-20T05:37:23.250Z,12.08
2017-08-20T05:38:23.227Z,12.09
2017-08-20T05:39:23.230Z,12.10
2017-08-20T05:40:23.271Z,12.10
2017-08-20T05:41:23.219Z,12.12
2017-08-20T05:42:23.217Z,12.12
2017-08-20T05:43:23.279Z,12.14
2017-08-20T05:44:23.248Z,12.16
2017-08-20T05:45:23.202Z,12.16
2017-08-20T05:46:23.200Z,12.20
2017-08-20T05:47:23.223Z,12.21
2017-08-20T05:48:23.283Z,12.18
2017-08-20T05:49:23.237Z,12.20
2017-08-20T05:50:23.219Z,12.20
2017-08-20T05:51:23.291Z,12.21
2017-08-20T05:52:23.289Z,12.20
2017-08-20T05:53:23.226Z,12.22
2017-08-20T05:54:23.249Z,12.24
2017-08-20T05:55:23.278Z,12.26
2017-08-20T05:56:23.333Z,12.29
2017-08-20T05:57:23.326Z,12.31
2017-08-20T05:58:23.293Z,12.32
2017-08-20T05:59:23.254Z,12.35
2017-08-20T06:00:23.223Z,12.39
2017-08-20T06:01:23.268Z,12.40
2017-08-20T06:02:23.239Z,12.43
2017-08-20T06:03:23.325Z,12.46
2017-08-20T06:04:23.247Z,12.50
2017-08-20T06:05:23.248Z,12.53
2017-08-20T06:06:23.251Z,12.55
2017-08-20T06:07:23.281Z,12.58
2017-08-20T06:08:23.282Z,12.62
2017-08-20T06:09:23.309Z,12.66
2017-08-20T06:10:23.295Z,12.66
2017-08-20T06:11:23.298Z,12.69
2017-08-20T06:12:23.292Z,12.71
2017-08-20T06:13:23.343Z,12.76
2017-08-20T06:14:23.254Z,12.80
2017-08-20T06:15:23.242Z,12.86
2017-08-20T06:16:23.229Z,12.94
2017-08-20T06:17:23.275Z,12.99
2017-08-20T06:18:23.307Z,13.05
2017-08-20T06:19:23.273Z,13.09
2017-08-20T06:20:23.305Z,13.10
2017-08-20T06:21:23.332Z,13.23
2017-08-20T06:22:23.301Z,13.40
2017-08-20T06:23:23.304Z,13.54
2017-08-20T06:24:23.279Z,13.79
2017-08-20T06:25:23.340Z,14.02
2017-08-20T06:26:23.303Z,14.17
2017-08-20T06:27:23.278Z,14.22
2017-08-20T06:28:23.281Z,14.32
2017-08-20T06:29:23.274Z,14.47
2017-08-20T06:30:23.335Z,14.51
2017-08-20T06:31:23.312Z,14.49
2017-08-20T06:32:23.306Z,14.47
2017-08-20T06:33:23.324Z,14.60
2017-08-20T06:34:23.280Z,14.73
2017-08-20T06:35:23.343Z,14.91
2017-08-20T06:36:23.277Z,15.02
2017-08-20T06:37:23.277Z,15.17
2017-08-20T06:38:23.276Z,15.31
2017-08-20T06:39:23.382Z,15.22
2017-08-20T06:40:23.314Z,15.14
2017-08-20T06:41:23.344Z,15.04
2017-08-20T06:42:23.366Z,15.03
2017-08-20T06:43:23.378Z,14.92
2017-08-20T06:44:23.293Z,14.89
2017-08-20T06:45:23.320Z,15.02
2017-08-20T06:46:23.296Z,15.14
2017-08-20T06:47:23.302Z,15.13
2017-08-20T06:48:23.385Z,15.08
2017-08-20T06:49:23.294Z,15.15
2017-08-20T06:50:23.296Z,15.07
2017-08-20T06:51:23.305Z,15.04
2017-08-20T06:52:23.275Z,15.15
2017-08-20T06:53:23.320Z,15.18
2017-08-20T06:54:23.253Z,15.15
2017-08-20T06:55:23.320Z,15.13
2017-08-20T06:56:23.322Z,15.19
2017-08-20T06:57:23.291Z,15.31
2017-08-20T06:58:23.311Z,15.39
2017-08-20T06:59:23.272Z,15.46
2017-08-20T07:00:23.302Z,15.47
2017-08-20T07:01:23.324Z,15.64
2017-08-20T07:02:23.314Z,15.73
2017-08-20T07:03:23.312Z,15.76
2017-08-20T07:04:23.320Z,15.91
2017-08-20T07:05:23.280Z,15.97
2017-08-20T07:06:23.282Z,16.07
2017-08-20T07:07:23.322Z,16.09
2017-08-20T07:08:23.341Z,16.20
2017-08-20T07:09:23.338Z,16.39
2017-08-20T07:10:23.373Z,16.58
2017-08-20T07:11:23.344Z,16.72
2017-08-20T07:12:23.364Z,16.77
2017-08-20T07:13:23.308Z,16.84
2017-08-20T07:14:23.405Z,17.02
2017-08-20T07:15:23.317Z,17.03
2017-08-20T07:16:23.376Z,16.99
2017-08-20T07:17:23.348Z,16.97
2017-08-20T07:18:23.348Z,17.03
2017-08-20T07:19:23.513Z,17.21
2017-08-20T07:20:23.371Z,17.25
2017-08-20T07:21:23.325Z,17.35
2017-08-20T07:22:23.381Z,17.37
2017-08-20T07:23:23.340Z,17.53
2017-08-20T07:24:23.406Z,17.65
2017-08-20T07:25:23.323Z,17.69
2017-08-20T07:26:23.334Z,17.73
2017-08-20T07:27:23.414Z,17.84
2017-08-20T07:28:23.372Z,17.98
2017-08-20T07:29:23.322Z,17.99
2017-08-20T07:30:23.351Z,18.00
2017-08-20T07:31:23.360Z,17.80
2017-08-20T07:32:23.417Z,17.62
2017-08-20T07:33:23.355Z,17.43
2017-08-20T07:34:23.394Z,17.25
2017-08-20T07:35:23.323Z,17.16
2017-08-20T07:36:23.413Z,17.05
2017-08-20T07:37:23.364Z,16.99
2017-08-20T07:38:23.421Z,16.99
2017-08-20T07:39:23.379Z,16.81
2017-08-20T07:40:23.330Z,16.66
2017-08-20T07:41:23.387Z,16.59
2017-08-20T07:42:23.413Z,16.57
2017-08-20T07:43:23.346Z,16.59
2017-08-20T07:44:23.328Z,16.57
2017-08-20T07:45:23.391Z,16.59
2017-08-20T07:46:23.381Z,16.65
2017-08-20T07:47:23.332Z,16.77
2017-08-20T07:48:23.333Z,16.87
2017-08-20T07:49:23.352Z,16.94
2017-08-20T07:50:23.321Z,17.03
2017-08-20T07:51:23.382Z,17.02
2017-08-20T07:52:23.353Z,16.98
2017-08-20T07:53:23.385Z,17.14
2017-08-20T07:54:23.322Z,17.29
2017-08-20T07:55:23.322Z,17.35
2017-08-20T07:56:23.327Z,17.37
2017-08-20T07:57:23.326Z,17.32
2017-08-20T07:58:23.324Z,17.26
2017-08-20T07:59:23.324Z,17.29
2017-08-20T08:00:23.369Z,17.44
2017-08-20T08:01:23.396Z,17.57
2017-08-20T08:02:23.360Z,17.55
2017-08-20T08:03:23.358Z,17.68
2017-08-20T08:04:23.328Z,17.84
2017-08-20T08:05:23.333Z,17.95
2017-08-20T08:06:23.364Z,18.05
2017-08-20T08:07:23.365Z,18.20
2017-08-20T08:08:23.401Z,18.31
2017-08-20T08:09:23.396Z,18.28
2017-08-20T08:11:23.356Z,18.50
2017-08-20T08:12:23.305Z,18.54
2017-08-20T08:13:23.358Z,18.51
2017-08-20T08:14:23.341Z,18.68
2017-08-20T08:15:23.381Z,18.90
2017-08-20T08:16:23.320Z,18.86
2017-08-20T08:17:23.362Z,18.98
2017-08-20T08:18:23.395Z,19.13
2017-08-20T08:19:23.309Z,19.05
2017-08-20T08:20:23.354Z,18.91
2017-08-20T08:21:23.381Z,19.02
2017-08-20T08:22:23.383Z,19.15
2017-08-20T08:23:23.347Z,19.25
2017-08-20T08:24:23.424Z,19.27
2017-08-20T08:25:23.414Z,19.35
2017-08-20T08:26:23.354Z,19.31
2017-08-20T08:27:23.354Z,19.03
2017-08-20T08:28:23.355Z,18.79
2017-08-20T08:29:23.353Z,18.70
2017-08-20T08:30:23.396Z,18.76
2017-08-20T08:31:23.353Z,18.88
2017-08-20T08:32:23.488Z,18.76
2017-08-20T08:33:23.416Z,18.69
2017-08-20T08:34:23.358Z,18.54
2017-08-20T08:35:23.420Z,18.62
2017-08-20T08:36:23.362Z,18.68
2017-08-20T08:37:23.354Z,18.70
2017-08-20T08:38:23.398Z,18.72
2017-08-20T08:39:23.381Z,18.81
2017-08-20T08:40:23.356Z,18.69
2017-08-20T08:41:23.368Z,18.58
2017-08-20T08:42:23.335Z,18.59
2017-08-20T08:43:23.339Z,18.41
2017-08-20T08:44:23.360Z,18.36
2017-08-20T08:45:23.377Z,18.32
2017-08-20T08:46:23.341Z,18.36
2017-08-20T08:47:23.339Z,18.54
2017-08-20T08:48:23.445Z,18.57
2017-08-20T08:49:23.396Z,18.36
2017-08-20T08:50:23.400Z,18.58
2017-08-20T08:51:23.429Z,18.65
2017-08-20T08:52:23.393Z,18.48
2017-08-20T08:53:23.374Z,18.57
2017-08-20T08:54:23.370Z,18.62
2017-08-20T08:55:23.367Z,18.64
2017-08-20T08:56:23.368Z,18.72
2017-08-20T08:57:23.512Z,18.75
2017-08-20T08:58:23.437Z,18.66
2017-08-20T08:59:23.397Z,18.75
2017-08-20T09:00:23.436Z,18.77
2017-08-20T09:01:23.377Z,18.80
2017-08-20T09:02:23.418Z,18.84
2017-08-20T09:03:23.375Z,18.58
2017-08-20T09:04:23.379Z,18.47
2017-08-20T09:05:23.443Z,18.36
2017-08-20T09:06:23.408Z,18.34
2017-08-20T09:07:23.434Z,18.25
2017-08-20T09:08:23.450Z,18.28
2017-08-20T09:09:23.403Z,18.32
2017-08-20T09:10:23.402Z,18.41
2017-08-20T09:11:23.474Z,18.43
2017-08-20T09:12:23.410Z,18.57
2017-08-20T09:13:23.412Z,18.70
2017-08-20T09:14:23.383Z,18.68
2017-08-20T09:15:23.415Z,18.59
2017-08-20T09:16:23.421Z,18.57
2017-08-20T09:17:23.442Z,18.64
2017-08-20T09:18:23.457Z,18.70
2017-08-20T09:19:23.407Z,18.90
2017-08-20T09:20:23.429Z,19.08
2017-08-20T09:21:23.406Z,19.32
2017-08-20T09:22:23.377Z,19.54
2017-08-20T09:23:23.407Z,19.66
2017-08-20T09:24:23.375Z,19.57
2017-08-20T09:25:23.410Z,19.40
2017-08-20T09:26:23.378Z,19.47
2017-08-20T09:27:23.376Z,19.54
2017-08-20T09:28:23.412Z,19.43
2017-08-20T09:29:23.410Z,19.55
2017-08-20T09:30:23.394Z,19.47
2017-08-20T09:31:23.425Z,19.57
2017-08-20T09:32:23.388Z,19.68
2017-08-20T09:33:23.452Z,19.61
2017-08-20T09:34:23.430Z,19.55
2017-08-20T09:35:23.430Z,19.36
2017-08-20T09:36:23.458Z,19.20
2017-08-20T09:37:23.453Z,19.19
2017-08-20T09:38:23.402Z,19.24
2017-08-20T09:39:23.396Z,18.99
2017-08-20T09:40:23.427Z,18.87
2017-08-20T09:41:23.493Z,18.72
2017-08-20T09:42:23.469Z,18.65
2017-08-20T09:43:23.404Z,18.50
2017-08-20T09:44:23.461Z,18.51
2017-08-20T09:45:23.493Z,18.59
2017-08-20T09:46:23.491Z,18.57
2017-08-20T09:47:23.427Z,18.50
2017-08-20T09:48:23.433Z,18.44
2017-08-20T09:49:23.492Z,18.40
2017-08-20T09:50:23.461Z,18.41
2017-08-20T09:51:23.426Z,18.41
2017-08-20T09:52:23.462Z,18.43
2017-08-20T09:53:23.404Z,18.61
2017-08-20T09:54:23.413Z,18.79
2017-08-20T09:55:23.405Z,18.87
2017-08-20T09:56:23.437Z,18.86
2017-08-20T09:57:23.461Z,18.83
2017-08-20T09:58:23.441Z,18.70
2017-08-20T09:59:23.502Z,18.69
2017-08-20T10:00:23.393Z,18.69
2017-08-20T10:01:23.397Z,18.62
2017-08-20T10:02:23.429Z,18.65
2017-08-20T10:03:23.405Z,18.64
2017-08-20T10:04:23.429Z,18.61
2017-08-20T10:05:23.399Z,18.57
2017-08-20T10:06:23.431Z,18.59
2017-08-20T10:07:23.485Z,18.57
2017-08-20T10:08:23.465Z,18.68
2017-08-20T10:09:23.427Z,18.75
2017-08-20T10:10:23.413Z,18.91
2017-08-20T10:11:23.452Z,19.05
2017-08-20T10:12:23.507Z,19.03
2017-08-20T10:13:23.507Z,19.05
2017-08-20T10:14:23.416Z,19.01
2017-08-20T10:15:23.422Z,18.92
2017-08-20T10:16:23.442Z,18.86
2017-08-20T10:17:23.491Z,18.87
2017-08-20T10:18:23.453Z,18.70
2017-08-20T10:19:23.478Z,18.66
2017-08-20T10:20:23.409Z,18.65
2017-08-20T10:21:23.398Z,18.64
2017-08-20T10:22:23.403Z,18.59
2017-08-20T10:23:23.399Z,18.64
2017-08-20T10:24:23.415Z,18.64
2017-08-20T10:25:23.436Z,18.62
2017-08-20T10:26:23.399Z,18.69
2017-08-20T10:27:23.415Z,18.75
2017-08-20T10:28:23.469Z,18.73
2017-08-20T10:29:23.444Z,18.68
2017-08-20T10:30:23.491Z,18.65
2017-08-20T10:31:23.431Z,18.65
2017-08-20T10:32:23.489Z,18.65
2017-08-20T10:33:23.450Z,18.66
2017-08-20T10:34:23.430Z,18.58
2017-08-20T10:35:23.429Z,18.57
2017-08-20T10:36:23.506Z,18.55
2017-08-20T10:37:23.435Z,18.52
2017-08-20T10:38:23.463Z,18.52
2017-08-20T10:39:23.491Z,18.52
2017-08-20T10:40:23.453Z,18.79
2017-08-20T10:41:23.416Z,18.91
2017-08-20T10:42:23.459Z,19.12
2017-08-20T10:43:23.455Z,19.10
2017-08-20T10:44:23.422Z,19.09
2017-08-20T10:45:23.428Z,19.01
2017-08-20T10:46:23.454Z,18.99
2017-08-20T10:47:23.424Z,18.99
2017-08-20T10:48:23.423Z,19.02
2017-08-20T10:49:23.459Z,18.98
2017-08-20T10:50:23.476Z,18.88
2017-08-20T10:51:23.498Z,18.84
2017-08-20T10:52:23.530Z,18.79
2017-08-20T10:53:23.520Z,18.80
2017-08-20T10:54:23.496Z,18.80
2017-08-20T10:55:23.466Z,18.79
2017-08-20T10:56:23.498Z,18.76
2017-08-20T10:57:23.464Z,18.64
2017-08-20T10:58:23.475Z,18.62
2017-08-20T10:59:23.444Z,18.68
2017-08-20T11:00:23.509Z,18.88
2017-08-20T11:01:23.450Z,19.24
2017-08-20T11:02:23.511Z,19.66
2017-08-20T11:03:23.470Z,19.96
2017-08-20T11:04:23.486Z,20.27
2017-08-20T11:05:23.477Z,20.28
2017-08-20T11:06:23.454Z,20.13
2017-08-20T11:07:23.491Z,19.96
2017-08-20T11:08:23.521Z,19.81
2017-08-20T11:09:23.543Z,19.81
2017-08-20T11:10:23.461Z,19.72
2017-08-20T11:11:23.427Z,19.74
2017-08-20T11:12:23.458Z,19.68
2017-08-20T11:13:23.495Z,19.61
2017-08-20T11:14:23.450Z,19.46
2017-08-20T11:15:23.418Z,19.27
2017-08-20T11:16:23.448Z,19.13
2017-08-20T11:17:23.587Z,19.12
2017-08-20T11:18:23.504Z,19.16
2017-08-20T11:19:23.393Z,19.06
2017-08-20T11:20:23.460Z,18.91
2017-08-20T11:21:23.448Z,18.83
2017-08-20T11:22:23.629Z,18.76
2017-08-20T11:23:23.539Z,18.59
2017-08-20T11:24:23.514Z,18.52
2017-08-20T11:25:23.515Z,18.57
2017-08-20T11:26:23.491Z,18.54
2017-08-20T11:27:23.622Z,18.54
2017-08-20T11:28:23.481Z,18.57
2017-08-20T11:29:23.485Z,18.54
2017-08-20T11:30:23.513Z,18.61
2017-08-20T11:31:23.455Z,18.69
2017-08-20T11:32:23.455Z,18.73
2017-08-20T11:33:23.456Z,18.80
2017-08-20T11:34:23.513Z,18.72
2017-08-20T11:35:23.539Z,18.70
2017-08-20T11:36:23.517Z,18.80
2017-08-20T11:37:23.490Z,18.81
2017-08-20T11:38:23.497Z,18.79
2017-08-20T11:39:23.542Z,18.86
2017-08-20T11:40:23.523Z,18.94
2017-08-20T11:41:23.467Z,18.99
2017-08-20T11:42:23.558Z,19.16
2017-08-20T11:43:23.555Z,19.38
2017-08-20T11:44:23.503Z,19.31
2017-08-20T11:45:23.562Z,19.17
2017-08-20T11:46:23.502Z,19.10
2017-08-20T11:47:23.533Z,19.15
2017-08-20T11:48:23.474Z,19.24
2017-08-20T11:49:23.541Z,19.21
2017-08-20T11:50:23.544Z,19.25
2017-08-20T11:51:23.496Z,19.38
2017-08-20T11:52:23.519Z,19.40
2017-08-20T11:53:23.624Z,19.39
2017-08-20T11:54:23.506Z,19.43
2017-08-20T11:55:23.496Z,19.33
2017-08-20T11:56:23.468Z,19.25
2017-08-20T11:57:23.452Z,19.16
2017-08-20T11:58:23.493Z,19.15
2017-08-20T11:59:23.450Z,19.13
2017-08-20T12:00:23.455Z,19.12
2017-08-20T12:01:23.474Z,19.17
2017-08-20T12:02:23.519Z,19.17
2017-08-20T12:03:23.571Z,19.17
2017-08-20T12:04:23.481Z,19.20
2017-08-20T12:05:23.482Z,19.21
2017-08-20T12:06:23.541Z,19.40
2017-08-20T12:07:23.561Z,19.68
2017-08-20T12:08:23.483Z,19.70
2017-08-20T12:09:23.519Z,19.72
2017-08-20T12:10:23.578Z,19.70
2017-08-20T12:11:23.480Z,19.83
2017-08-20T12:12:23.532Z,19.94
2017-08-20T12:13:23.449Z,20.01
2017-08-20T12:14:23.453Z,19.90
2017-08-20T12:15:23.465Z,19.95
2017-08-20T12:16:23.500Z,20.09
2017-08-20T12:17:23.425Z,19.85
2017-08-20T12:18:23.425Z,19.88
2017-08-20T12:19:23.536Z,19.99
2017-08-20T12:20:23.469Z,20.30
2017-08-20T12:21:23.588Z,20.34
2017-08-20T12:22:23.522Z,20.23
2017-08-20T12:23:23.494Z,20.20
2017-08-20T12:24:23.498Z,20.16
2017-08-20T12:25:23.586Z,20.05
2017-08-20T12:26:23.580Z,19.90
2017-08-20T12:27:23.546Z,19.68
2017-08-20T12:28:23.592Z,19.73
2017-08-20T12:29:23.627Z,19.76
2017-08-20T12:30:23.524Z,19.76
2017-08-20T12:31:23.521Z,19.73
2017-08-20T12:32:23.516Z,19.65
2017-08-20T12:33:23.470Z,19.62
2017-08-20T12:34:23.524Z,19.64
2017-08-20T12:35:23.476Z,19.61
2017-08-20T12:36:23.476Z,19.61
2017-08-20T12:37:23.533Z,19.62
2017-08-20T12:38:23.522Z,19.79
2017-08-20T12:39:23.496Z,19.84
2017-08-20T12:40:23.498Z,20.05
2017-08-20T12:41:23.594Z,20.16
2017-08-20T12:42:23.528Z,20.28
2017-08-20T12:43:23.576Z,20.35
2017-08-20T12:44:23.564Z,20.34
2017-08-20T12:45:23.600Z,20.35
2017-08-20T12:46:23.558Z,20.36
2017-08-20T12:47:23.506Z,20.31
2017-08-20T12:48:23.546Z,20.20
2017-08-20T12:49:23.601Z,20.10
2017-08-20T12:50:23.508Z,20.02
2017-08-20T12:51:23.502Z,19.98
2017-08-20T12:52:23.526Z,20.03
2017-08-20T12:53:23.487Z,19.96